Ciudad Obregón International Airport
MMCN : now visible

Airfield :











YOU CAN JOIN US ON...

 
LOGIN :

Register | Disclaimer

   EN    FR    IT 

 









Legend :    VFR   Marginal VFR   IFR   Intensive IFR   Very Intensive IFR
Visi :
Ceiling :
>= 8 km
>= 3000ft
5 to 8 km
1000 to 3000 ft
1500m to 5 km
500 to 1000 ft
800 to 1500m
200 to 500 ft
< 800m
< 200 ft
Symbols :   Thunderstorms  Fog  Heavy snow  Heavy precipitations  Wind > 20 kt






- Airport Elevation : 243 ft
- IATA code : CEN


MMCN - Ciudad Obregón International

CURRENT METAR :
  • 272140Z 33014KT 10SM SCT030 BKN200 30/16 A2986 RMK 8/403 RAE02 CB NW AND NE

EXPIRED METARs :
  • 272019Z 26017KT 10SM -RA SCT030CB 32/17 A2989 RMK 8/900 RAB2015 RTS
  • 271941Z 17004KT 10SM SCT030 34/14 A2990 RMK 8/100 HZY
  • 271845Z 23003KT 10SM FEW030 33/19 A2992 RMK 8/100 HZY

TAF AMD TAF MMCN
Valid from the 27 at 20:00 until the 28 at 18:00 UTC


272023Z 2720/2818 26018KT P6SM -RA SCT030CB
TEMPO 2721/2723 5SM -TSRA BKN030CB
FM272300 25010KT P6SM SCT030CB BKN220
BECMG 2802/2803 30005KT SCT220
FM281700 22010KT P6SM SKC
MMFR FIR / North America



MET'MAP, your aeronautical weather chart ! - Copyright ORBIFLY December 2007 - Disclaimer

ORBIFLY MET'MAP TEAM :

Programming & Development : Alexandra Zaïnal
Concept & original design : Baudouin d'Aumeries
Assistance for programming : Marc-Olivier Méhu
Technical & hardware support : Manuel Goepfert

Contact : metmap@orbifly.com




SOURCES & CREDITS :

   NOAA       Earth
Advisory